createdAt,value
2019-05-19T00:02:28.093Z,11.55
2019-05-19T00:12:35.725Z,11.38
2019-05-19T00:17:44.601Z,11.43
2019-05-19T00:22:48.685Z,12.45
2019-05-19T00:27:53.029Z,12.43
2019-05-19T00:32:57.290Z,11.38
2019-05-19T00:38:01.260Z,12.40
2019-05-19T00:43:06.079Z,17.27
2019-05-19T00:48:12.984Z,14.50
2019-05-19T00:53:19.165Z,13.72
2019-05-19T00:58:46.746Z,15.10
2019-05-19T01:03:52.128Z,16.55
2019-05-19T01:08:56.155Z,12.13
2019-05-19T01:14:00.408Z,14.38
2019-05-19T01:19:04.643Z,14.68
2019-05-19T01:24:08.933Z,13.10
2019-05-19T01:29:13.016Z,14.98
2019-05-19T01:34:17.577Z,15.40
2019-05-19T01:39:22.281Z,14.05
2019-05-19T01:44:30.294Z,16.00
2019-05-19T01:49:34.325Z,16.55
2019-05-19T01:54:38.491Z,15.00
2019-05-19T01:59:45.145Z,11.15
2019-05-19T02:04:49.276Z,13.78
2019-05-19T02:09:53.391Z,15.38
2019-05-19T02:14:57.679Z,13.70
2019-05-19T02:20:01.854Z,14.25
2019-05-19T02:25:06.925Z,14.93
2019-05-19T02:30:11.045Z,14.13
2019-05-19T02:35:16.427Z,14.55
2019-05-19T02:40:20.676Z,14.40
2019-05-19T02:45:29.556Z,8.85
2019-05-19T02:50:51.542Z,14.53
2019-05-19T02:55:44.019Z,16.07
2019-05-19T03:00:48.080Z,17.40
2019-05-19T03:05:52.538Z,17.02
2019-05-19T03:10:58.396Z,12.90
2019-05-19T03:16:02.999Z,17.37
2019-05-19T03:26:15.708Z,10.63
2019-05-19T03:31:32.409Z,13.32
2019-05-19T03:36:36.758Z,9.85
2019-05-19T03:41:42.015Z,12.13
2019-05-19T03:46:46.270Z,16.37
2019-05-19T03:51:50.611Z,16.62
2019-05-19T03:56:55.214Z,15.40
2019-05-19T04:07:05.078Z,15.65
2019-05-19T04:12:11.396Z,15.35
2019-05-19T04:17:15.469Z,14.90
2019-05-19T04:22:20.232Z,15.83
2019-05-19T04:27:24.262Z,14.00
2019-05-19T04:32:28.524Z,19.98
2019-05-19T04:37:32.887Z,18.77
2019-05-19T04:42:40.229Z,15.53
2019-05-19T04:47:44.545Z,16.62
2019-05-19T04:57:53.972Z,16.00
2019-05-19T05:08:01.452Z,21.10
2019-05-19T05:13:06.841Z,27.20
2019-05-19T05:18:10.987Z,21.95
2019-05-19T05:23:15.304Z,21.05
2019-05-19T05:28:19.428Z,24.32
2019-05-19T05:33:23.724Z,21.52
2019-05-19T05:38:28.152Z,16.80
2019-05-19T05:43:37.007Z,17.17
2019-05-19T05:48:41.412Z,18.42
2019-05-19T05:53:47.024Z,23.52
2019-05-19T05:58:51.624Z,22.02
2019-05-19T06:09:01.369Z,20.27
2019-05-19T06:14:06.293Z,22.55
2019-05-19T06:19:10.674Z,22.22
2019-05-19T06:24:19.055Z,22.95
2019-05-19T06:29:23.398Z,27.45
2019-05-19T06:34:31.049Z,23.67
2019-05-19T06:39:40.596Z,25.23
2019-05-19T06:44:46.569Z,26.35
2019-05-19T06:49:50.822Z,26.42
2019-05-19T06:54:54.993Z,28.35
2019-05-19T07:00:03.894Z,31.50
2019-05-19T07:05:15.338Z,26.82
2019-05-19T07:10:24.225Z,29.15
2019-05-19T07:15:28.623Z,27.35
2019-05-19T07:20:41.816Z,27.35
2019-05-19T07:25:47.759Z,26.93
2019-05-19T07:30:54.352Z,21.62
2019-05-19T07:36:05.384Z,23.52
2019-05-19T07:41:09.929Z,20.23
2019-05-19T07:51:19.576Z,26.60
2019-05-19T07:56:23.854Z,27.10
2019-05-19T08:01:27.958Z,22.95
2019-05-19T08:06:32.303Z,21.87
2019-05-19T08:11:42.858Z,21.52
2019-05-19T08:16:46.864Z,20.20
2019-05-19T08:21:51.030Z,21.62
2019-05-19T08:26:59.361Z,18.57
2019-05-19T08:32:03.435Z,26.10
2019-05-19T08:37:07.544Z,18.62
2019-05-19T08:42:11.843Z,17.55
2019-05-19T08:47:16.027Z,15.28
2019-05-19T08:52:19.960Z,14.65
2019-05-19T08:57:24.441Z,13.15
2019-05-19T09:02:29.708Z,24.12
2019-05-19T09:07:33.973Z,14.80
2019-05-19T09:12:38.077Z,13.28
2019-05-19T09:17:45.287Z,17.95
2019-05-19T09:22:49.459Z,11.18
2019-05-19T09:27:54.950Z,12.35
2019-05-19T09:33:00.427Z,10.88
2019-05-19T09:38:07.252Z,12.55
2019-05-19T09:43:16.568Z,10.93
2019-05-19T09:48:20.862Z,9.85
2019-05-19T09:58:47.306Z,8.45
2019-05-19T10:03:51.616Z,6.22
2019-05-19T10:14:22.116Z,7.87
2019-05-19T10:19:35.952Z,6.95
2019-05-19T10:24:40.018Z,6.42
2019-05-19T10:29:47.591Z,8.00
2019-05-19T10:34:51.883Z,8.60
2019-05-19T10:50:07.881Z,7.47
2019-05-19T10:55:13.672Z,6.08
2019-05-19T11:00:20.723Z,7.58
2019-05-19T11:05:24.937Z,6.30
2019-05-19T11:10:38.044Z,4.95
2019-05-19T11:15:46.284Z,6.37
2019-05-19T11:20:50.406Z,4.72
2019-05-19T11:26:02.531Z,5.35
2019-05-19T11:31:08.227Z,4.40
2019-05-19T11:36:16.616Z,4.03
2019-05-19T11:41:25.190Z,4.05
2019-05-19T11:46:29.463Z,3.42
2019-05-19T11:56:53.781Z,4.40
2019-05-19T12:02:06.736Z,3.60
2019-05-19T12:07:13.879Z,3.58
2019-05-19T12:12:22.168Z,4.42
2019-05-19T12:17:26.094Z,4.28
2019-05-19T12:22:33.185Z,4.10
2019-05-19T12:27:40.873Z,3.55
2019-05-19T12:32:45.413Z,4.37
2019-05-19T12:37:51.894Z,4.55
2019-05-19T12:42:59.121Z,5.55
2019-05-19T12:48:05.890Z,5.35
2019-05-19T12:53:15.441Z,4.55
2019-05-19T12:58:25.344Z,5.92
2019-05-19T13:03:29.765Z,5.92
2019-05-19T13:08:35.547Z,5.25
2019-05-19T13:13:43.104Z,5.28
2019-05-19T13:18:47.907Z,4.37
2019-05-19T13:23:56.028Z,4.35
2019-05-19T13:29:04.544Z,3.45
2019-05-19T13:34:12.154Z,4.53
2019-05-19T13:39:21.036Z,3.87
2019-05-19T13:44:27.424Z,6.75
2019-05-19T13:49:32.261Z,5.95
2019-05-19T13:54:36.872Z,4.87
2019-05-19T13:59:41.174Z,4.20
2019-05-19T14:09:56.325Z,7.28
2019-05-19T14:15:04.347Z,5.83
2019-05-19T14:20:13.761Z,5.15
2019-05-19T14:25:19.324Z,4.72
2019-05-19T14:30:30.346Z,4.67
2019-05-19T14:35:56.475Z,3.10
2019-05-19T14:41:04.655Z,3.55
2019-05-19T14:46:16.718Z,2.60
2019-05-19T14:51:43.934Z,15.72
2019-05-19T14:56:55.530Z,11.48
2019-05-19T15:02:20.422Z,15.60
2019-05-19T15:07:26.407Z,3.98
2019-05-19T15:12:33.083Z,7.45
2019-05-19T15:17:39.268Z,5.72
2019-05-19T15:22:43.400Z,3.47
2019-05-19T15:33:57.792Z,7.28
2019-05-19T15:39:03.505Z,4.10
2019-05-19T15:44:07.770Z,5.20
2019-05-19T16:01:41.607Z,2.92
2019-05-19T16:07:49.286Z,2.72
2019-05-19T16:12:56.485Z,4.00
2019-05-19T16:18:07.107Z,4.75
2019-05-19T16:23:29.238Z,3.10
2019-05-19T16:28:32.687Z,2.37
2019-05-19T16:38:42.322Z,5.30
2019-05-19T16:43:46.416Z,2.15
2019-05-19T16:48:52.745Z,3.40
2019-05-19T16:54:01.016Z,2.62
2019-05-19T16:59:05.858Z,3.00
2019-05-19T17:04:13.272Z,3.05
2019-05-19T17:09:17.351Z,2.80
2019-05-19T17:14:25.046Z,3.65
2019-05-19T17:19:29.225Z,2.92
2019-05-19T17:24:34.847Z,3.42
2019-05-19T17:29:38.933Z,5.65
2019-05-19T17:34:50.017Z,1.85
2019-05-19T17:39:54.393Z,3.30
2019-05-19T17:45:01.490Z,3.15
2019-05-19T17:50:06.656Z,4.58
2019-05-19T17:55:12.532Z,2.37
2019-05-19T18:00:22.118Z,2.80
2019-05-19T18:05:35.605Z,2.05
2019-05-19T18:10:46.575Z,5.87
2019-05-19T18:15:52.136Z,2.33
2019-05-19T18:20:59.570Z,2.90
2019-05-19T18:26:20.801Z,3.08
2019-05-19T18:31:32.241Z,2.67
2019-05-19T18:36:40.133Z,3.55
2019-05-19T18:41:47.041Z,2.98
2019-05-19T18:46:52.571Z,2.27
2019-05-19T18:52:02.606Z,3.25
2019-05-19T18:57:07.074Z,4.15
2019-05-19T19:02:13.352Z,2.95
2019-05-19T19:07:21.059Z,5.40
2019-05-19T19:12:25.481Z,5.58
2019-05-19T19:17:31.085Z,8.43
2019-05-19T19:22:35.292Z,5.12
2019-05-19T19:27:39.698Z,5.75
2019-05-19T19:32:47.808Z,4.83
2019-05-19T19:37:52.560Z,4.35
2019-05-19T19:43:00.054Z,5.70
2019-05-19T19:48:07.067Z,9.10
2019-05-19T19:53:43.821Z,8.35
2019-05-19T20:03:56.608Z,6.25
2019-05-19T20:09:01.089Z,6.85
2019-05-19T20:20:03.614Z,6.87
2019-05-19T20:25:10.400Z,7.83
2019-05-19T20:30:14.686Z,7.05
2019-05-19T20:35:19.270Z,6.62
2019-05-19T20:45:40.961Z,7.72
2019-05-19T20:50:42.268Z,8.83
2019-05-19T20:55:46.773Z,7.28
2019-05-19T21:01:05.752Z,8.83
2019-05-19T21:06:12.420Z,9.33
2019-05-19T21:11:17.013Z,10.40
2019-05-19T21:21:24.551Z,8.43
2019-05-19T21:26:29.965Z,9.50
2019-05-19T21:31:46.455Z,10.55
2019-05-19T21:36:51.745Z,10.78
2019-05-19T21:41:56.179Z,11.05
2019-05-19T21:47:18.461Z,9.83
2019-05-19T21:52:22.865Z,10.30
2019-05-19T21:57:28.503Z,14.30
2019-05-19T22:02:33.313Z,14.33
2019-05-19T22:07:58.598Z,15.18
2019-05-19T22:13:02.933Z,12.53
2019-05-19T22:18:07.066Z,12.40
2019-05-19T22:23:11.390Z,12.23
2019-05-19T22:28:15.596Z,12.75
2019-05-19T22:33:19.668Z,13.90
2019-05-19T22:38:23.878Z,14.58
2019-05-19T22:43:29.628Z,13.18
2019-05-19T22:48:34.049Z,16.23
2019-05-19T22:53:38.193Z,14.35
2019-05-19T22:58:48.891Z,14.33
2019-05-19T23:03:52.918Z,15.45
2019-05-19T23:27:11.517Z,17.70
2019-05-19T23:32:21.930Z,16.32
2019-05-19T23:37:46.128Z,14.70
2019-05-19T23:42:52.950Z,16.90
2019-05-19T23:47:57.435Z,16.48
2019-05-19T23:53:04.879Z,18.35
2019-05-19T23:58:19.178Z,16.93
